createdAt,value
2023-04-19T00:00:08.092Z,10.30
2023-04-19T00:00:18.625Z,10.30
2023-04-19T00:00:29.128Z,10.29
2023-04-19T00:00:39.638Z,10.29
2023-04-19T00:00:50.149Z,10.27
2023-04-19T00:01:00.684Z,10.27
2023-04-19T00:01:11.186Z,10.29
2023-04-19T00:01:21.695Z,10.27
2023-04-19T00:01:32.212Z,10.27
2023-04-19T00:01:42.767Z,10.27
2023-04-19T00:01:53.242Z,10.27
2023-04-19T00:02:03.807Z,10.29
2023-04-19T00:02:14.309Z,10.27
2023-04-19T00:02:24.920Z,10.29
2023-04-19T00:02:35.395Z,10.27
2023-04-19T00:02:45.904Z,10.27
2023-04-19T00:02:56.491Z,10.26
2023-04-19T00:03:07.203Z,10.27
2023-04-19T00:03:17.693Z,10.27
2023-04-19T00:03:28.198Z,10.26
2023-04-19T00:03:38.610Z,10.27
2023-04-19T00:03:49.327Z,10.27
2023-04-19T00:03:59.520Z,10.26
2023-04-19T00:04:10.127Z,10.27
2023-04-19T00:04:20.764Z,10.27
2023-04-19T00:04:31.061Z,10.26
2023-04-19T00:04:41.491Z,10.27
2023-04-19T00:04:52.043Z,10.26
2023-04-19T00:05:02.762Z,10.27
2023-04-19T00:05:13.055Z,10.26
2023-04-19T00:05:23.518Z,10.27
2023-04-19T00:05:34.033Z,10.26
2023-04-19T00:05:44.539Z,10.25
2023-04-19T00:05:55.066Z,10.26
2023-04-19T00:06:05.550Z,10.27
2023-04-19T00:06:16.069Z,10.26
2023-04-19T00:06:26.574Z,10.25
2023-04-19T00:06:37.115Z,10.25
2023-04-19T00:06:47.614Z,10.26
2023-04-19T00:06:58.117Z,10.25
2023-04-19T00:07:08.634Z,10.25
2023-04-19T00:07:19.237Z,10.23
2023-04-19T00:07:29.712Z,10.23
2023-04-19T00:07:40.169Z,10.25
2023-04-19T00:07:50.679Z,10.23
2023-04-19T00:08:01.195Z,10.22
2023-04-19T00:08:11.703Z,10.22
2023-04-19T00:08:22.213Z,10.23
2023-04-19T00:08:32.738Z,10.23
2023-04-19T00:08:43.246Z,10.22
2023-04-19T00:08:53.789Z,10.22
2023-04-19T00:09:04.268Z,10.23
2023-04-19T00:09:14.791Z,10.25
2023-04-19T00:09:25.329Z,10.23
2023-04-19T00:09:35.799Z,10.23
2023-04-19T00:09:46.608Z,10.25
2023-04-19T00:09:56.822Z,10.23
2023-04-19T00:10:07.341Z,10.23
2023-04-19T00:10:17.851Z,10.23
2023-04-19T00:10:28.376Z,10.22
2023-04-19T00:10:38.878Z,10.23
2023-04-19T00:10:49.370Z,10.23
2023-04-19T00:10:59.902Z,10.20
2023-04-19T00:11:10.400Z,10.20
2023-04-19T00:11:20.921Z,10.20
2023-04-19T00:11:31.425Z,10.20
2023-04-19T00:11:41.956Z,10.17
2023-04-19T00:11:52.476Z,10.18
2023-04-19T00:12:02.957Z,10.18
2023-04-19T00:12:13.469Z,10.20
2023-04-19T00:12:23.981Z,10.18
2023-04-19T00:12:34.672Z,10.17
2023-04-19T00:12:45.015Z,10.17
2023-04-19T00:12:55.514Z,10.17
2023-04-19T00:13:06.025Z,10.17
2023-04-19T00:13:16.593Z,10.17
2023-04-19T00:13:27.059Z,10.17
2023-04-19T00:13:37.571Z,10.17
2023-04-19T00:13:48.077Z,10.17
2023-04-19T00:13:58.602Z,10.17
2023-04-19T00:14:09.112Z,10.17
2023-04-19T00:14:19.607Z,10.17
2023-04-19T00:14:30.118Z,10.15
2023-04-19T00:14:40.631Z,10.15
2023-04-19T00:14:51.171Z,10.15
2023-04-19T00:15:01.659Z,10.15
2023-04-19T00:15:12.176Z,10.17
2023-04-19T00:15:22.726Z,10.14
2023-04-19T00:15:33.193Z,10.15
2023-04-19T00:15:43.701Z,10.15
2023-04-19T00:15:54.220Z,10.15
2023-04-19T00:16:04.732Z,10.15
2023-04-19T00:16:15.274Z,10.14
2023-04-19T00:16:25.794Z,10.15
2023-04-19T00:16:36.304Z,10.15
2023-04-19T00:16:47.029Z,10.12
2023-04-19T00:16:57.332Z,10.15
2023-04-19T00:17:07.821Z,10.15
2023-04-19T00:17:18.314Z,10.14
2023-04-19T00:17:28.854Z,10.14
2023-04-19T00:17:39.393Z,10.14
2023-04-19T00:17:49.880Z,10.14
2023-04-19T00:18:00.367Z,10.14
2023-04-19T00:18:10.870Z,10.14
2023-04-19T00:18:21.371Z,10.14
2023-04-19T00:18:32.221Z,10.14
2023-04-19T00:18:42.538Z,10.14
2023-04-19T00:18:52.921Z,10.14
2023-04-19T00:19:03.614Z,10.12
2023-04-19T00:19:14.155Z,10.14
2023-04-19T00:19:24.533Z,10.12
2023-04-19T00:19:35.044Z,10.12
2023-04-19T00:19:45.469Z,10.14
2023-04-19T00:19:55.983Z,10.12
2023-04-19T00:20:06.518Z,10.11
2023-04-19T00:20:17.009Z,10.11
2023-04-19T00:20:27.510Z,10.12
2023-04-19T00:20:38.039Z,10.12
2023-04-19T00:20:48.538Z,10.11
2023-04-19T00:20:59.059Z,10.12
2023-04-19T00:21:09.572Z,10.11
2023-04-19T00:21:20.089Z,10.11
2023-04-19T00:21:30.606Z,10.11
2023-04-19T00:21:41.098Z,10.09
2023-04-19T00:21:51.638Z,10.11
2023-04-19T00:22:02.144Z,10.09
2023-04-19T00:22:12.639Z,10.07
2023-04-19T00:22:23.188Z,10.09
2023-04-19T00:22:33.706Z,10.09
2023-04-19T00:22:44.185Z,10.08
2023-04-19T00:22:54.689Z,10.08
2023-04-19T00:23:05.209Z,10.07
2023-04-19T00:23:15.738Z,10.08
2023-04-19T00:23:26.233Z,10.07
2023-04-19T00:23:36.740Z,10.09
2023-04-19T00:23:47.285Z,10.05
2023-04-19T00:23:57.769Z,10.07
2023-04-19T00:24:08.280Z,10.05
2023-04-19T00:24:18.792Z,10.05
2023-04-19T00:24:29.306Z,10.07
2023-04-19T00:24:39.815Z,10.07
2023-04-19T00:24:50.322Z,10.07
2023-04-19T00:25:00.844Z,10.07
2023-04-19T00:25:11.362Z,10.07
2023-04-19T00:25:21.857Z,10.05
2023-04-19T00:25:32.375Z,10.05
2023-04-19T00:25:42.895Z,10.07
2023-04-19T00:25:53.392Z,10.05
2023-04-19T00:26:03.924Z,10.07
2023-04-19T00:26:14.420Z,10.05
2023-04-19T00:26:24.935Z,10.05
2023-04-19T00:26:35.444Z,10.07
2023-04-19T00:26:45.949Z,10.05
2023-04-19T00:26:56.462Z,10.04
2023-04-19T00:27:07.316Z,10.07
2023-04-19T00:27:17.492Z,10.05
2023-04-19T00:27:27.994Z,10.05
2023-04-19T00:27:38.522Z,10.05
2023-04-19T00:27:49.037Z,10.04
2023-04-19T00:27:59.522Z,10.04
2023-04-19T00:28:10.062Z,10.05
2023-04-19T00:28:20.551Z,10.05
2023-04-19T00:28:31.110Z,10.04
2023-04-19T00:28:41.680Z,10.07
2023-04-19T00:28:52.086Z,10.05
2023-04-19T00:29:02.616Z,10.05
2023-04-19T00:29:13.116Z,10.05
2023-04-19T00:29:23.627Z,10.05
2023-04-19T00:29:34.226Z,10.05
2023-04-19T00:29:44.665Z,10.05
2023-04-19T00:29:55.157Z,10.07
2023-04-19T00:30:05.683Z,10.05
2023-04-19T00:30:16.193Z,10.05
2023-04-19T00:30:26.694Z,10.05
2023-04-19T00:30:37.223Z,10.05
2023-04-19T00:30:47.758Z,10.05
2023-04-19T00:30:58.259Z,10.04
2023-04-19T00:31:08.787Z,10.04
2023-04-19T00:31:19.296Z,10.04
2023-04-19T00:31:29.828Z,10.04
2023-04-19T00:31:40.274Z,10.05
2023-04-19T00:31:50.779Z,10.04
2023-04-19T00:32:01.287Z,10.05
2023-04-19T00:32:11.806Z,10.05
2023-04-19T00:32:22.329Z,10.02
2023-04-19T00:32:32.904Z,10.02
2023-04-19T00:32:43.373Z,10.04
2023-04-19T00:32:53.867Z,10.01
2023-04-19T00:33:04.422Z,10.04
2023-04-19T00:33:14.907Z,10.04
2023-04-19T00:33:25.385Z,10.02
2023-04-19T00:33:35.950Z,10.01
2023-04-19T00:33:46.423Z,10.02
2023-04-19T00:33:56.936Z,10.02
2023-04-19T00:34:07.433Z,10.01
2023-04-19T00:34:17.952Z,10.01
2023-04-19T00:34:28.464Z,10.02
2023-04-19T00:34:38.993Z,9.99
2023-04-19T00:34:49.485Z,10.01
2023-04-19T00:35:00.040Z,9.99
2023-04-19T00:35:10.520Z,10.01
2023-04-19T00:35:21.020Z,9.99
2023-04-19T00:35:31.532Z,9.99
2023-04-19T00:35:42.067Z,10.01
2023-04-19T00:35:52.573Z,9.97
2023-04-19T00:36:03.061Z,9.97
2023-04-19T00:36:13.584Z,9.99
2023-04-19T00:36:24.123Z,9.97
2023-04-19T00:36:34.641Z,9.99
2023-04-19T00:36:45.138Z,9.96
2023-04-19T00:36:55.625Z,9.97
2023-04-19T00:37:06.162Z,9.99
2023-04-19T00:37:16.675Z,9.97
2023-04-19T00:37:27.200Z,9.97
2023-04-19T00:37:37.674Z,9.97
2023-04-19T00:37:48.180Z,9.99
2023-04-19T00:37:58.710Z,9.99
2023-04-19T00:38:09.202Z,9.97
2023-04-19T00:38:19.743Z,9.96
2023-04-19T00:38:30.233Z,9.97
2023-04-19T00:38:40.744Z,9.96
2023-04-19T00:38:51.358Z,9.96
2023-04-19T00:39:01.773Z,9.97
2023-04-19T00:39:12.294Z,9.97
2023-04-19T00:39:22.820Z,9.94
2023-04-19T00:39:33.509Z,9.94
2023-04-19T00:39:43.833Z,9.94
2023-04-19T00:39:54.358Z,9.93
2023-04-19T00:40:04.857Z,9.94
2023-04-19T00:40:15.390Z,9.93
2023-04-19T00:40:25.887Z,9.93
2023-04-19T00:40:36.407Z,9.94
2023-04-19T00:40:46.913Z,9.93
2023-04-19T00:40:57.441Z,9.94
2023-04-19T00:41:07.982Z,9.93
2023-04-19T00:41:18.476Z,9.93
2023-04-19T00:41:28.972Z,9.94
2023-04-19T00:41:39.483Z,9.93
2023-04-19T00:41:50.000Z,9.94
2023-04-19T00:42:00.514Z,9.93
2023-04-19T00:42:11.028Z,9.93
2023-04-19T00:42:21.548Z,9.93
2023-04-19T00:42:32.041Z,9.93
2023-04-19T00:42:42.568Z,9.93
2023-04-19T00:42:53.078Z,9.93
2023-04-19T00:43:03.720Z,9.93
2023-04-19T00:43:14.122Z,9.91
2023-04-19T00:43:24.616Z,9.91
2023-04-19T00:43:35.133Z,9.91
2023-04-19T00:43:45.645Z,9.91
2023-04-19T00:43:56.146Z,9.91
2023-04-19T00:44:06.661Z,9.90
2023-04-19T00:44:17.380Z,9.91
2023-04-19T00:44:27.697Z,9.91
2023-04-19T00:44:38.200Z,9.91
2023-04-19T00:44:48.710Z,9.91
2023-04-19T00:44:59.218Z,9.91
2023-04-19T00:45:09.741Z,9.91
2023-04-19T00:45:20.292Z,9.90
2023-04-19T00:45:30.780Z,9.89
2023-04-19T00:45:41.274Z,9.90
2023-04-19T00:45:51.818Z,9.89
2023-04-19T00:46:02.334Z,9.90
2023-04-19T00:46:12.867Z,9.89
2023-04-19T00:46:23.420Z,9.89
2023-04-19T00:46:33.904Z,9.90
2023-04-19T00:46:44.451Z,9.90
2023-04-19T00:46:54.863Z,9.87
2023-04-19T00:47:05.401Z,9.87
2023-04-19T00:47:15.889Z,9.89
2023-04-19T00:47:26.448Z,9.90
2023-04-19T00:47:36.956Z,9.87
2023-04-19T00:47:47.473Z,9.87
2023-04-19T00:47:58.013Z,9.87
2023-04-19T00:48:08.506Z,9.87
2023-04-19T00:48:18.966Z,9.87
2023-04-19T00:48:29.479Z,9.86
2023-04-19T00:48:39.995Z,9.87
2023-04-19T00:48:50.623Z,9.87
2023-04-19T00:49:01.021Z,9.86
2023-04-19T00:49:11.517Z,9.86
2023-04-19T00:49:22.037Z,9.84
2023-04-19T00:49:32.548Z,9.87
2023-04-19T00:49:43.084Z,9.86
2023-04-19T00:49:53.576Z,9.86
2023-04-19T00:50:04.093Z,9.87
2023-04-19T00:50:14.597Z,9.86
2023-04-19T00:50:25.117Z,9.87
2023-04-19T00:50:35.610Z,9.86
2023-04-19T00:50:46.133Z,9.87
2023-04-19T00:50:56.644Z,9.86
2023-04-19T00:51:07.147Z,9.86
2023-04-19T00:51:17.666Z,9.87
2023-04-19T00:51:28.176Z,9.86
2023-04-19T00:51:38.688Z,9.86
2023-04-19T00:51:49.197Z,9.84
2023-04-19T00:51:59.717Z,9.86
2023-04-19T00:52:10.235Z,9.86
2023-04-19T00:52:20.938Z,9.84
2023-04-19T00:52:31.250Z,9.86
2023-04-19T00:52:41.770Z,9.84
2023-04-19T00:52:52.290Z,9.86
2023-04-19T00:53:02.787Z,9.86
2023-04-19T00:53:13.303Z,9.84
2023-04-19T00:53:23.807Z,9.86
2023-04-19T00:53:34.336Z,9.86
2023-04-19T00:53:44.830Z,9.86
2023-04-19T00:53:55.357Z,9.86
2023-04-19T00:54:05.854Z,9.84
2023-04-19T00:54:16.701Z,9.86
2023-04-19T00:54:26.879Z,9.86
2023-04-19T00:54:37.408Z,9.86
2023-04-19T00:54:47.932Z,9.86
2023-04-19T00:54:58.433Z,9.86
2023-04-19T00:55:08.935Z,9.87
2023-04-19T00:55:19.500Z,9.86
2023-04-19T00:55:29.978Z,9.86
2023-04-19T00:55:40.480Z,9.84
2023-04-19T00:55:50.983Z,9.86
2023-04-19T00:56:01.515Z,9.86
2023-04-19T00:56:12.009Z,9.86
2023-04-19T00:56:22.528Z,9.87
2023-04-19T00:56:33.070Z,9.86
2023-04-19T00:56:43.549Z,9.87
2023-04-19T00:56:54.076Z,9.87
2023-04-19T00:57:04.583Z,9.84
2023-04-19T00:57:15.327Z,9.87
2023-04-19T00:57:25.596Z,9.87
2023-04-19T00:57:36.109Z,9.87
2023-04-19T00:57:46.618Z,9.87
2023-04-19T00:57:57.132Z,9.89
2023-04-19T00:58:07.646Z,9.87
2023-04-19T00:58:18.169Z,9.87
2023-04-19T00:58:28.675Z,9.87
2023-04-19T00:58:39.187Z,9.86
2023-04-19T00:58:49.688Z,9.86
2023-04-19T00:59:00.240Z,9.86
2023-04-19T00:59:10.721Z,9.86
2023-04-19T00:59:21.231Z,9.86
2023-04-19T00:59:31.748Z,9.87
2023-04-19T00:59:42.271Z,9.86
2023-04-19T00:59:52.786Z,9.87
2023-04-19T01:00:03.349Z,9.86
2023-04-19T01:00:14.352Z,9.86
2023-04-19T01:00:24.329Z,9.87
2023-04-19T01:00:34.828Z,9.87
2023-04-19T01:00:45.342Z,9.86
2023-04-19T01:00:55.858Z,9.86
2023-04-19T01:01:06.552Z,9.87
2023-04-19T01:01:16.896Z,9.87
2023-04-19T01:01:27.431Z,9.86
2023-04-19T01:01:38.030Z,9.86
2023-04-19T01:01:48.478Z,9.87
2023-04-19T01:01:59.047Z,9.87
2023-04-19T01:02:09.512Z,9.86
2023-04-19T01:02:19.973Z,9.84
2023-04-19T01:02:30.600Z,9.86
2023-04-19T01:02:41.146Z,9.86
2023-04-19T01:02:51.581Z,9.87
2023-04-19T01:03:02.160Z,9.87
2023-04-19T01:03:12.668Z,9.87
2023-04-19T01:03:23.180Z,9.86
2023-04-19T01:03:33.777Z,9.86
2023-04-19T01:03:44.265Z,9.86
2023-04-19T01:03:54.619Z,9.86
2023-04-19T01:04:05.102Z,9.86
2023-04-19T01:04:16.002Z,9.84
2023-04-19T01:04:26.187Z,9.86
2023-04-19T01:04:36.717Z,9.86
2023-04-19T01:04:47.157Z,9.86
2023-04-19T01:04:57.634Z,9.84
2023-04-19T01:05:08.159Z,9.83
2023-04-19T01:05:18.723Z,9.84
2023-04-19T01:05:29.191Z,9.84
2023-04-19T01:05:39.692Z,9.83
2023-04-19T01:05:50.191Z,9.83
2023-04-19T01:06:00.718Z,9.84
2023-04-19T01:06:11.275Z,9.83
2023-04-19T01:06:21.736Z,9.84
2023-04-19T01:06:32.260Z,9.83
2023-04-19T01:06:42.757Z,9.83
2023-04-19T01:06:53.290Z,9.83
2023-04-19T01:07:03.788Z,9.81
2023-04-19T01:07:14.310Z,9.81
2023-04-19T01:07:24.914Z,9.83
2023-04-19T01:07:35.338Z,9.81
2023-04-19T01:07:45.858Z,9.81
2023-04-19T01:07:56.369Z,9.81
2023-04-19T01:08:06.876Z,9.81
2023-04-19T01:08:17.396Z,9.79
2023-04-19T01:08:27.903Z,9.81
2023-04-19T01:08:38.419Z,9.81
2023-04-19T01:08:48.927Z,9.81
2023-04-19T01:08:59.450Z,9.79
2023-04-19T01:09:09.958Z,9.81
2023-04-19T01:09:20.485Z,9.81
2023-04-19T01:09:30.981Z,9.81
2023-04-19T01:09:41.508Z,9.83
2023-04-19T01:09:52.004Z,9.79
2023-04-19T01:10:02.514Z,9.79
2023-04-19T01:10:13.027Z,9.79
2023-04-19T01:10:23.557Z,9.76
2023-04-19T01:10:34.047Z,9.76
2023-04-19T01:10:44.560Z,9.79
2023-04-19T01:10:55.084Z,9.78
2023-04-19T01:11:05.618Z,9.79
2023-04-19T01:11:16.098Z,9.76
2023-04-19T01:11:26.608Z,9.76
2023-04-19T01:11:37.126Z,9.79
2023-04-19T01:11:47.646Z,9.76
2023-04-19T01:11:58.141Z,9.78
2023-04-19T01:12:08.658Z,9.78
2023-04-19T01:12:19.164Z,9.76
2023-04-19T01:12:29.681Z,9.75
2023-04-19T01:12:40.199Z,9.75
2023-04-19T01:12:50.713Z,9.76
2023-04-19T01:13:01.249Z,9.76
2023-04-19T01:13:11.732Z,9.74
2023-04-19T01:13:22.242Z,9.75
2023-04-19T01:13:32.785Z,9.74
2023-04-19T01:13:43.268Z,9.74
2023-04-19T01:13:53.775Z,9.74
2023-04-19T01:14:04.289Z,9.74
2023-04-19T01:14:15.133Z,9.74
2023-04-19T01:14:25.320Z,9.75
2023-04-19T01:14:35.820Z,9.74
2023-04-19T01:14:46.332Z,9.72
2023-04-19T01:14:56.859Z,9.75
2023-04-19T01:15:07.362Z,9.75
2023-04-19T01:15:17.874Z,9.76
2023-04-19T01:15:28.387Z,9.75
2023-04-19T01:15:38.943Z,9.75
2023-04-19T01:15:49.497Z,9.75
2023-04-19T01:16:00.037Z,9.75
2023-04-19T01:16:10.538Z,9.74
2023-04-19T01:16:21.019Z,9.75
2023-04-19T01:16:31.564Z,9.74
2023-04-19T01:16:41.973Z,9.75
2023-04-19T01:16:52.475Z,9.74
2023-04-19T01:17:02.985Z,9.75
2023-04-19T01:17:13.509Z,9.75
2023-04-19T01:17:24.063Z,9.75
2023-04-19T01:17:34.559Z,9.75
2023-04-19T01:17:45.118Z,9.75
2023-04-19T01:17:55.611Z,9.75
2023-04-19T01:18:06.079Z,9.74
2023-04-19T01:18:16.582Z,9.75
2023-04-19T01:18:27.091Z,9.74
2023-04-19T01:18:37.651Z,9.74
2023-04-19T01:18:48.120Z,9.74
2023-04-19T01:18:58.627Z,9.74
2023-04-19T01:19:09.135Z,9.72
2023-04-19T01:19:19.669Z,9.71
2023-04-19T01:19:30.165Z,9.72
2023-04-19T01:19:40.670Z,9.72
2023-04-19T01:19:51.360Z,9.74
2023-04-19T01:20:01.724Z,9.71
2023-04-19T01:20:12.222Z,9.71
2023-04-19T01:20:22.715Z,9.71
2023-04-19T01:20:33.227Z,9.71
2023-04-19T01:20:43.738Z,9.72
2023-04-19T01:20:54.250Z,9.72
2023-04-19T01:21:04.770Z,9.72
2023-04-19T01:21:15.272Z,9.71
2023-04-19T01:21:25.816Z,9.72
2023-04-19T01:21:36.311Z,9.72
2023-04-19T01:21:46.814Z,9.72
2023-04-19T01:21:57.323Z,9.71
2023-04-19T01:22:07.826Z,9.71
2023-04-19T01:22:18.333Z,9.72
2023-04-19T01:22:28.850Z,9.72
2023-04-19T01:22:39.367Z,9.72
2023-04-19T01:22:49.875Z,9.71
2023-04-19T01:23:00.398Z,9.71
2023-04-19T01:23:10.901Z,9.71
2023-04-19T01:23:21.415Z,9.71
2023-04-19T01:23:31.925Z,9.71
2023-04-19T01:23:42.467Z,9.72
2023-04-19T01:23:52.948Z,9.71
2023-04-19T01:24:03.457Z,9.72
2023-04-19T01:24:14.522Z,9.71
2023-04-19T01:24:24.484Z,9.74
2023-04-19T01:24:34.991Z,9.72
2023-04-19T01:24:45.504Z,9.72
2023-04-19T01:24:56.022Z,9.72
2023-04-19T01:25:06.541Z,9.71
2023-04-19T01:25:17.040Z,9.72
2023-04-19T01:25:27.582Z,9.72
2023-04-19T01:25:38.057Z,9.72
2023-04-19T01:25:48.574Z,9.69
2023-04-19T01:25:59.084Z,9.71
2023-04-19T01:26:09.638Z,9.72
2023-04-19T01:26:20.112Z,9.69
2023-04-19T01:26:30.618Z,9.71
2023-04-19T01:26:41.134Z,9.71
2023-04-19T01:26:51.638Z,9.72
2023-04-19T01:27:02.158Z,9.71
2023-04-19T01:27:12.675Z,9.71
2023-04-19T01:27:23.189Z,9.72
2023-04-19T01:27:33.710Z,9.71
2023-04-19T01:27:44.205Z,9.72
2023-04-19T01:27:54.733Z,9.72
2023-04-19T01:28:05.232Z,9.71
2023-04-19T01:28:15.796Z,9.71
2023-04-19T01:28:26.250Z,9.72
2023-04-19T01:28:36.764Z,9.72
2023-04-19T01:28:47.278Z,9.69
2023-04-19T01:28:57.800Z,9.72
2023-04-19T01:29:08.300Z,9.72
2023-04-19T01:29:18.874Z,9.72
2023-04-19T01:29:29.349Z,9.72
2023-04-19T01:29:39.836Z,9.71
2023-04-19T01:29:50.351Z,9.74
2023-04-19T01:30:00.859Z,9.72
2023-04-19T01:30:11.376Z,9.72
2023-04-19T01:30:21.886Z,9.72
2023-04-19T01:30:32.396Z,9.74
2023-04-19T01:30:42.916Z,9.74
2023-04-19T01:30:53.522Z,9.74
2023-04-19T01:31:03.995Z,9.72
2023-04-19T01:31:14.472Z,9.74
2023-04-19T01:31:25.012Z,9.72
2023-04-19T01:31:35.511Z,9.74
2023-04-19T01:31:46.091Z,9.71
2023-04-19T01:31:56.495Z,9.72
2023-04-19T01:32:07.009Z,9.72
2023-04-19T01:32:17.514Z,9.72
2023-04-19T01:32:28.061Z,9.71
2023-04-19T01:32:38.598Z,9.71
2023-04-19T01:32:49.220Z,9.72
2023-04-19T01:32:59.755Z,9.72
2023-04-19T01:33:10.069Z,9.72
2023-04-19T01:33:20.588Z,9.71
2023-04-19T01:33:31.103Z,9.71
2023-04-19T01:33:41.604Z,9.71
2023-04-19T01:33:52.158Z,9.72
2023-04-19T01:34:02.635Z,9.71
2023-04-19T01:34:13.274Z,9.72
2023-04-19T01:34:23.664Z,9.71
2023-04-19T01:34:34.168Z,9.69
2023-04-19T01:34:44.713Z,9.71
2023-04-19T01:34:55.230Z,9.72
2023-04-19T01:35:05.709Z,9.71
2023-04-19T01:35:16.231Z,9.72
2023-04-19T01:35:26.742Z,9.69
2023-04-19T01:35:37.252Z,9.69
2023-04-19T01:35:47.759Z,9.69
2023-04-19T01:35:58.280Z,9.69
2023-04-19T01:36:08.805Z,9.68
2023-04-19T01:36:19.310Z,9.69
2023-04-19T01:36:29.808Z,9.69
2023-04-19T01:36:40.310Z,9.68
2023-04-19T01:36:50.825Z,9.68
2023-04-19T01:37:01.394Z,9.69
2023-04-19T01:37:11.842Z,9.68
2023-04-19T01:37:22.367Z,9.66
2023-04-19T01:37:32.874Z,9.66
2023-04-19T01:37:43.410Z,9.68
2023-04-19T01:37:53.895Z,9.65
2023-04-19T01:38:04.400Z,9.66
2023-04-19T01:38:14.926Z,9.68
2023-04-19T01:38:25.442Z,9.66
2023-04-19T01:38:35.955Z,9.65
2023-04-19T01:38:46.445Z,9.65
2023-04-19T01:38:56.966Z,9.65
2023-04-19T01:39:07.498Z,9.65
2023-04-19T01:39:17.982Z,9.64
2023-04-19T01:39:28.493Z,9.65
2023-04-19T01:39:39.011Z,9.66
2023-04-19T01:39:49.514Z,9.64
2023-04-19T01:40:00.042Z,9.64
2023-04-19T01:40:10.552Z,9.64
2023-04-19T01:40:21.057Z,9.61
2023-04-19T01:40:31.564Z,9.61
2023-04-19T01:40:42.090Z,9.64
2023-04-19T01:40:52.591Z,9.61
2023-04-19T01:41:03.109Z,9.60
2023-04-19T01:41:13.608Z,9.61
2023-04-19T01:41:24.122Z,9.61
2023-04-19T01:41:34.639Z,9.61
2023-04-19T01:41:45.147Z,9.60
2023-04-19T01:41:55.673Z,9.60
2023-04-19T01:42:06.177Z,9.61
2023-04-19T01:42:16.732Z,9.61
2023-04-19T01:42:27.198Z,9.61
2023-04-19T01:42:37.708Z,9.60
2023-04-19T01:42:48.224Z,9.60
2023-04-19T01:42:58.749Z,9.60
2023-04-19T01:43:09.256Z,9.60
2023-04-19T01:43:19.752Z,9.58
2023-04-19T01:43:30.260Z,9.60
2023-04-19T01:43:40.781Z,9.60
2023-04-19T01:43:51.290Z,9.60
2023-04-19T01:44:01.949Z,9.60
2023-04-19T01:44:12.454Z,9.61
2023-04-19T01:44:22.824Z,9.61
2023-04-19T01:44:33.331Z,9.60
2023-04-19T01:44:43.840Z,9.58
2023-04-19T01:44:54.355Z,9.60
2023-04-19T01:45:04.862Z,9.60
2023-04-19T01:45:15.385Z,9.60
2023-04-19T01:45:25.898Z,9.58
2023-04-19T01:45:36.412Z,9.57
2023-04-19T01:45:46.921Z,9.58
2023-04-19T01:45:57.429Z,9.58
2023-04-19T01:46:07.939Z,9.60
2023-04-19T01:46:18.480Z,9.57
2023-04-19T01:46:28.977Z,9.57
2023-04-19T01:46:39.526Z,9.57
2023-04-19T01:46:50.087Z,9.58
2023-04-19T01:47:00.583Z,9.57
2023-04-19T01:47:11.212Z,9.56
2023-04-19T01:47:21.524Z,9.57
2023-04-19T01:47:32.073Z,9.57
2023-04-19T01:47:42.563Z,9.57
2023-04-19T01:47:53.117Z,9.56
2023-04-19T01:48:03.618Z,9.56
2023-04-19T01:48:14.088Z,9.56
2023-04-19T01:48:24.611Z,9.56
2023-04-19T01:48:35.129Z,9.57
2023-04-19T01:48:45.634Z,9.56
2023-04-19T01:48:56.133Z,9.56
2023-04-19T01:49:06.640Z,9.56
2023-04-19T01:49:17.262Z,9.57
2023-04-19T01:49:27.662Z,9.56
2023-04-19T01:49:38.169Z,9.56
2023-04-19T01:49:48.679Z,9.54
2023-04-19T01:49:59.250Z,9.54
2023-04-19T01:50:09.699Z,9.56
2023-04-19T01:50:20.213Z,9.56
2023-04-19T01:50:30.722Z,9.54
2023-04-19T01:50:41.233Z,9.54
2023-04-19T01:50:51.741Z,9.54
2023-04-19T01:51:02.247Z,9.53
2023-04-19T01:51:12.759Z,9.54
2023-04-19T01:51:23.269Z,9.53
2023-04-19T01:51:33.779Z,9.53
2023-04-19T01:51:44.357Z,9.53
2023-04-19T01:51:54.803Z,9.53
2023-04-19T01:52:05.319Z,9.53
2023-04-19T01:52:15.819Z,9.51
2023-04-19T01:52:26.333Z,9.51
2023-04-19T01:52:36.863Z,9.53
2023-04-19T01:52:47.355Z,9.50
2023-04-19T01:52:57.871Z,9.47
2023-04-19T01:53:08.377Z,9.51
2023-04-19T01:53:19.374Z,9.48
2023-04-19T01:53:29.396Z,9.46
2023-04-19T01:53:39.904Z,9.43
2023-04-19T01:53:50.420Z,9.46
2023-04-19T01:54:00.923Z,9.47
2023-04-19T01:54:11.430Z,9.46
2023-04-19T01:54:21.948Z,9.43
2023-04-19T01:54:32.447Z,9.46
2023-04-19T01:54:42.964Z,9.42
2023-04-19T01:54:53.477Z,9.43
2023-04-19T01:55:03.988Z,9.43
2023-04-19T01:55:14.495Z,9.43
2023-04-19T01:55:25.037Z,9.43
2023-04-19T01:55:35.520Z,9.42
2023-04-19T01:55:46.042Z,9.42
2023-04-19T01:55:56.536Z,9.43
2023-04-19T01:56:07.053Z,9.40
2023-04-19T01:56:17.638Z,9.43
2023-04-19T01:56:28.090Z,9.40
2023-04-19T01:56:38.592Z,9.42
2023-04-19T01:56:49.103Z,9.40
2023-04-19T01:56:59.610Z,9.39
2023-04-19T01:57:10.134Z,9.39
2023-04-19T01:57:20.656Z,9.40
2023-04-19T01:57:31.168Z,9.39
2023-04-19T01:57:41.654Z,9.38
2023-04-19T01:57:54.003Z,9.38
2023-04-19T01:58:02.684Z,9.39
2023-04-19T01:58:13.196Z,9.36
2023-04-19T01:58:23.704Z,9.36
2023-04-19T01:58:34.226Z,9.38
2023-04-19T01:58:44.728Z,9.38
2023-04-19T01:58:55.247Z,9.38
2023-04-19T01:59:05.745Z,9.36
2023-04-19T01:59:16.257Z,9.36
2023-04-19T01:59:26.771Z,9.36
2023-04-19T01:59:37.278Z,9.36
2023-04-19T01:59:47.793Z,9.38
2023-04-19T01:59:58.303Z,9.35
2023-04-19T02:00:08.822Z,9.36
2023-04-19T02:00:19.317Z,9.35
2023-04-19T02:00:29.899Z,9.33
2023-04-19T02:00:40.377Z,9.36
2023-04-19T02:00:50.927Z,9.35
2023-04-19T02:01:01.385Z,9.32
2023-04-19T02:01:11.880Z,9.33
2023-04-19T02:01:22.561Z,9.33
2023-04-19T02:01:32.915Z,9.33
2023-04-19T02:01:43.429Z,9.35
2023-04-19T02:01:53.963Z,9.33
2023-04-19T02:02:04.459Z,9.35
2023-04-19T02:02:14.999Z,9.33
2023-04-19T02:02:25.563Z,9.35
2023-04-19T02:02:36.130Z,9.33
2023-04-19T02:02:46.639Z,9.33
2023-04-19T02:02:57.094Z,9.32
2023-04-19T02:03:07.594Z,9.32
2023-04-19T02:03:18.290Z,9.33
2023-04-19T02:03:28.695Z,9.32
2023-04-19T02:03:39.213Z,9.32
2023-04-19T02:03:49.677Z,9.35
2023-04-19T02:04:00.234Z,9.31
2023-04-19T02:04:10.619Z,9.31
2023-04-19T02:04:21.186Z,9.31
2023-04-19T02:04:31.573Z,9.31
2023-04-19T02:04:42.208Z,9.31
2023-04-19T02:04:52.604Z,9.32
2023-04-19T02:05:03.139Z,9.31
2023-04-19T02:05:13.629Z,9.31
2023-04-19T02:05:24.182Z,9.29
2023-04-19T02:05:34.641Z,9.29
2023-04-19T02:05:45.182Z,9.29
2023-04-19T02:05:55.681Z,9.29
2023-04-19T02:06:06.192Z,9.29
2023-04-19T02:06:16.714Z,9.29
2023-04-19T02:06:27.208Z,9.29
2023-04-19T02:06:37.719Z,9.29
2023-04-19T02:06:48.228Z,9.28
2023-04-19T02:06:58.790Z,9.28
2023-04-19T02:07:09.259Z,9.28
2023-04-19T02:07:19.964Z,9.28
2023-04-19T02:07:30.273Z,9.28
2023-04-19T02:07:40.785Z,9.26
2023-04-19T02:07:51.323Z,9.24
2023-04-19T02:08:01.841Z,9.24
2023-04-19T02:08:12.328Z,9.24
2023-04-19T02:08:22.847Z,9.24
2023-04-19T02:08:33.340Z,9.24
2023-04-19T02:08:43.856Z,9.24
2023-04-19T02:08:54.359Z,9.26
2023-04-19T02:09:04.909Z,9.24
2023-04-19T02:09:15.391Z,9.23
2023-04-19T02:09:25.884Z,9.23
2023-04-19T02:09:36.407Z,9.24
2023-04-19T02:09:46.913Z,9.23
2023-04-19T02:09:57.428Z,9.24
2023-04-19T02:10:07.927Z,9.23
2023-04-19T02:10:18.444Z,9.24
2023-04-19T02:10:28.959Z,9.24
2023-04-19T02:10:39.462Z,9.23
2023-04-19T02:10:49.999Z,9.23
2023-04-19T02:11:00.482Z,9.23
2023-04-19T02:11:10.993Z,9.23
2023-04-19T02:11:21.512Z,9.23
2023-04-19T02:11:32.025Z,9.21
2023-04-19T02:11:42.529Z,9.23
2023-04-19T02:11:53.059Z,9.23
2023-04-19T02:12:03.554Z,9.21
2023-04-19T02:12:14.053Z,9.21
2023-04-19T02:12:24.571Z,9.21
2023-04-19T02:12:35.116Z,9.21
2023-04-19T02:12:45.602Z,9.21
2023-04-19T02:12:56.115Z,9.21
2023-04-19T02:13:06.628Z,9.21
2023-04-19T02:13:17.123Z,9.20
2023-04-19T02:13:27.644Z,9.18
2023-04-19T02:13:38.142Z,9.20
2023-04-19T02:13:48.686Z,9.18
2023-04-19T02:13:59.162Z,9.18
2023-04-19T02:14:09.677Z,9.18
2023-04-19T02:14:20.180Z,9.18
2023-04-19T02:14:30.690Z,9.17
2023-04-19T02:14:41.216Z,9.18
2023-04-19T02:14:51.729Z,9.18
2023-04-19T02:15:02.259Z,9.17
2023-04-19T02:15:12.734Z,9.18
2023-04-19T02:15:23.253Z,9.18
2023-04-19T02:15:33.760Z,9.17
2023-04-19T02:15:44.273Z,9.15
2023-04-19T02:15:54.812Z,9.17
2023-04-19T02:16:05.327Z,9.18
2023-04-19T02:16:15.849Z,9.17
2023-04-19T02:16:26.367Z,9.17
2023-04-19T02:16:36.841Z,9.15
2023-04-19T02:16:47.377Z,9.15
2023-04-19T02:16:57.968Z,9.15
2023-04-19T02:17:08.355Z,9.14
2023-04-19T02:17:18.969Z,9.17
2023-04-19T02:17:29.391Z,9.15
2023-04-19T02:17:39.909Z,9.15
2023-04-19T02:17:50.470Z,9.14
2023-04-19T02:18:00.988Z,9.15
2023-04-19T02:18:11.419Z,9.14
2023-04-19T02:18:21.940Z,9.13
2023-04-19T02:18:32.427Z,9.13
2023-04-19T02:18:42.942Z,9.11